Time;durP1;ratioP1;P1;durP2;ratioP2;P2;SDS_P1;SDS_P2;PMS_P1;PMS_P2;Temp;Humidity;BMP_temperature;BMP_pressure;BME280_temperature;BME280_humidity;BME280_pressure;Samples;Min_cycle;Max_cycle;Signal;HPM_P1;HPM_P2
2022/02/27 00:00:24;;;;;;;;;;;;;;;4.48;76.18;101389.09;4956594;29;19952;-64
2022/02/27 00:03:08;;;;;;;;;;;;;;;4.47;75.88;101391.56;4956568;29;19968;-64
2022/02/27 00:05:52;;;;;;;;;;;;;;;4.46;75.47;101387.22;4957476;28;19973;-63
2022/02/27 00:08:36;;;;;;;;;;;;;;;4.45;75.98;101386.31;4957137;29;20020;-63
2022/02/27 00:11:20;;;;;;;;;;;;;;;4.45;75.87;101382.88;4956640;29;19926;-64
2022/02/27 00:14:04;;;;;;;;;;;;;;;4.46;75.93;101382.97;4956624;29;20449;-64
2022/02/27 00:16:48;;;;;;;;;;;;;;;4.46;75.82;101376.97;4956864;28;20056;-63
2022/02/27 00:19:34;;;;;;;;;;;;;;;4.45;76.13;101378.63;4956654;29;19926;-64
2022/02/27 00:22:18;;;;;;;;;;;;;;;4.44;75.83;101379.41;4970186;28;19973;-62
2022/02/27 00:25:03;;;;;;;;;;;;;;;4.45;75.57;101381.19;4957153;29;19960;-63
2022/02/27 00:27:47;;;;;;;;;;;;;;;4.45;76.34;101383.75;4956737;29;19925;-63
2022/02/27 00:30:31;;;;;;;;;;;;;;;4.45;76.25;101378.63;4969841;28;19925;-63
2022/02/27 00:33:15;;;;;;;;;;;;;;;4.45;75.71;101380.31;4957333;28;19973;-63
2022/02/27 00:35:59;;;;;;;;;;;;;;;4.45;75.60;101373.50;4956560;29;20012;-64
2022/02/27 00:38:45;;;;;;;;;;;;;;;4.46;75.71;101374.41;4969227;28;19941;-63
2022/02/27 00:41:29;;;;;;;;;;;;;;;4.46;75.32;101369.25;4956085;28;19964;-62
2022/02/27 00:44:13;;;;;;;;;;;;;;;4.46;75.88;101375.25;4956726;29;20031;-64
2022/02/27 00:46:57;;;;;;;;;;;;;;;4.46;75.30;101375.25;4970112;28;19981;-64
2022/02/27 00:49:40;;;;;;;;;;;;;;;4.46;76.29;101367.56;4956749;29;19966;-64
2022/02/27 00:52:24;;;;;;;;;;;;;;;4.46;75.34;101374.41;4956788;28;19968;-62
2022/02/27 00:55:09;;;;;;;;;;;;;;;4.45;75.92;101365.78;4956976;28;20441;-63
2022/02/27 00:57:53;;;;;;;;;;;;;;;4.45;75.62;101365.78;4956655;29;19934;-64
2022/02/27 01:00:37;;;;;;;;;;;;;;;4.45;75.38;101363.22;4956442;29;19973;-64
2022/02/27 01:03:21;;;;;;;;;;;;;;;4.45;75.55;101367.47;4956612;29;20424;-64
2022/02/27 01:06:05;;;;;;;;;;;;;;;4.45;75.94;101363.22;4956405;29;19965;-63
2022/02/27 01:08:49;;;;;;;;;;;;;;;4.46;75.45;101353.84;4956520;29;19924;-64
2022/02/27 01:11:33;;;;;;;;;;;;;;;4.45;75.51;101350.38;4969460;28;19969;-63
2022/02/27 01:14:17;;;;;;;;;;;;;;;4.46;75.46;101361.56;4955924;29;20294;-64
2022/02/27 01:17:06;;;;;;;;;;;;;;;4.44;75.60;101351.16;4956737;28;20278;-64
2022/02/27 01:19:50;;;;;;;;;;;;;;;4.44;75.99;101348.59;4956200;29;19925;-63
2022/02/27 01:22:34;;;;;;;;;;;;;;;4.42;75.57;101345.09;4968827;28;19941;-63
2022/02/27 01:25:18;;;;;;;;;;;;;;;4.41;75.58;101336.47;4956271;28;19926;-63
2022/02/27 01:28:02;;;;;;;;;;;;;;;4.40;75.98;101342.41;4956120;28;20013;-63
2022/02/27 01:30:46;;;;;;;;;;;;;;;4.40;75.97;101341.53;4955643;29;19977;-64
2022/02/27 01:33:30;;;;;;;;;;;;;;;4.40;76.33;101344.09;4955916;29;19925;-63
2022/02/27 01:36:14;;;;;;;;;;;;;;;4.40;75.33;101344.97;4955873;29;20309;-64
2022/02/27 01:38:58;;;;;;;;;;;;;;;4.40;75.60;101346.66;4955988;28;19933;-63
2022/02/27 01:41:42;;;;;;;;;;;;;;;4.40;75.84;101344.09;4955994;29;20014;-64
2022/02/27 01:44:26;;;;;;;;;;;;;;;4.40;75.62;101351.81;4955731;28;19929;-64
2022/02/27 01:47:11;;;;;;;;;;;;;;;4.40;75.98;101344.09;4955735;29;19925;-64
2022/02/27 01:49:55;;;;;;;;;;;;;;;4.38;75.88;101343.13;4955162;29;19968;-63
2022/02/27 01:52:39;;;;;;;;;;;;;;;4.37;75.90;101351.59;4955801;29;19925;-63
2022/02/27 01:55:23;;;;;;;;;;;;;;;4.37;75.26;101342.22;4955378;29;20016;-63
2022/02/27 01:58:07;;;;;;;;;;;;;;;4.38;75.38;101343.13;4955573;29;19965;-63
2022/02/27 02:00:51;;;;;;;;;;;;;;;4.38;76.32;101353.38;4968812;28;19925;-63
2022/02/27 02:03:35;;;;;;;;;;;;;;;4.38;75.52;101354.25;4969112;28;19925;-63
2022/02/27 02:06:19;;;;;;;;;;;;;;;4.40;75.51;101346.66;4959556;29;19925;-64
2022/02/27 02:09:03;;;;;;;;;;;;;;;4.39;76.12;101353.47;4959856;29;19984;-63
2022/02/27 02:11:47;;;;;;;;;;;;;;;4.37;75.84;101338.78;4972810;28;20457;-64
2022/02/27 02:14:31;;;;;;;;;;;;;;;4.36;75.45;101345.56;4973033;28;20274;-63
2022/02/27 02:17:15;;;;;;;;;;;;;;;4.35;75.52;101335.22;4972828;28;19926;-64
2022/02/27 02:19:59;;;;;;;;;;;;;;;4.36;75.47;101345.56;4959492;28;20278;-64
2022/02/27 02:22:43;;;;;;;;;;;;;;;4.37;75.91;101336.19;4959309;29;19925;-64
2022/02/27 02:25:27;;;;;;;;;;;;;;;4.37;75.70;101331.06;4959085;29;19925;-63
2022/02/27 02:28:11;;;;;;;;;;;;;;;4.37;75.97;101333.63;4972172;28;19968;-63
2022/02/27 02:30:55;;;;;;;;;;;;;;;4.36;75.28;101335.28;4959181;29;19991;-63
2022/02/27 02:33:39;;;;;;;;;;;;;;;4.35;75.20;101335.22;4959345;29;19925;-63
2022/02/27 02:36:23;;;;;;;;;;;;;;;4.34;75.88;101330.88;4959460;28;20322;-64
2022/02/27 02:39:10;;;;;;;;;;;;;;;4.35;75.48;101328.41;4959139;28;19977;-63
2022/02/27 02:41:55;;;;;;;;;;;;;;;4.35;75.93;101324.94;4972166;28;20005;-63
2022/02/27 02:44:39;;;;;;;;;;;;;;;4.35;75.26;101320.72;4972152;28;19925;-63
2022/02/27 02:47:23;;;;;;;;;;;;;;;4.36;75.25;101321.59;4972085;28;20290;-64
2022/02/27 02:50:08;;;;;;;;;;;;;;;4.36;75.57;101311.31;4971979;28;19926;-64
2022/02/27 02:52:51;;;;;;;;;;;;;;;4.35;75.94;101317.25;4958726;29;20020;-63
2022/02/27 02:55:35;;;;;;;;;;;;;;;4.34;75.56;101313.81;4959102;29;19966;-63
2022/02/27 02:58:19;;;;;;;;;;;;;;;4.35;75.37;101312.13;4971282;28;20321;-64
2022/02/27 03:01:03;;;;;;;;;;;;;;;4.34;76.28;101306.09;4958995;29;20369;-63
2022/02/27 03:03:47;;;;;;;;;;;;;;;4.34;76.03;101305.19;4958761;29;20021;-63
2022/02/27 03:06:32;;;;;;;;;;;;;;;4.33;75.69;101304.34;4958271;29;20306;-64
2022/02/27 03:09:16;;;;;;;;;;;;;;;4.31;75.37;101305.91;4958731;29;19964;-64
2022/02/27 03:12:00;;;;;;;;;;;;;;;4.30;75.20;101299.00;4958682;29;20299;-64
2022/02/27 03:14:44;;;;;;;;;;;;;;;4.28;75.36;101305.72;4958189;28;19972;-63
2022/02/27 03:17:28;;;;;;;;;;;;;;;4.26;75.08;101290.22;4957596;28;19973;-63
2022/02/27 03:20:12;;;;;;;;;;;;;;;4.24;75.92;101294.38;4957842;29;19924;-64
2022/02/27 03:22:56;;;;;;;;;;;;;;;4.24;75.45;101296.94;4958204;29;20437;-63
2022/02/27 03:25:40;;;;;;;;;;;;;;;4.21;75.90;101291.63;4958300;28;19925;-63
2022/02/27 03:28:26;;;;;;;;;;;;;;;4.20;75.18;101292.41;4971543;28;19924;-64
2022/02/27 03:31:10;;;;;;;;;;;;;;;4.21;75.30;101288.16;4958140;29;19925;-63
2022/02/27 03:33:56;;;;;;;;;;;;;;;4.19;75.39;101300.91;4958470;29;19941;-63
2022/02/27 03:36:40;;;;;;;;;;;;;;;4.20;75.40;101288.97;4970977;28;20345;-63
2022/02/27 03:39:27;;;;;;;;;;;;;;;4.18;75.25;101290.56;4958171;29;19972;-63
2022/02/27 03:42:11;;;;;;;;;;;;;;;4.18;75.48;101291.44;4970552;28;19924;-63
2022/02/27 03:44:55;;;;;;;;;;;;;;;4.17;75.16;101287.09;4957658;29;19925;-63
2022/02/27 03:47:40;;;;;;;;;;;;;;;4.17;75.45;101292.22;4957505;29;19970;-64
2022/02/27 03:50:24;;;;;;;;;;;;;;;4.17;75.75;101287.09;4970629;28;19925;-63
2022/02/27 03:53:08;;;;;;;;;;;;;;;4.17;75.67;101289.66;4970680;28;20278;-64
2022/02/27 03:55:52;;;;;;;;;;;;;;;4.19;74.98;101290.63;4957649;29;19926;-64
2022/02/27 03:58:36;;;;;;;;;;;;;;;4.21;75.23;101291.63;4957604;29;20008;-63
2022/02/27 04:01:20;;;;;;;;;;;;;;;4.21;75.25;101289.06;4957834;29;20022;-63
2022/02/27 04:04:04;;;;;;;;;;;;;;;4.21;75.29;101283.91;4957692;29;19941;-63
2022/02/27 04:06:48;;;;;;;;;;;;;;;4.22;75.33;101285.69;4957321;29;19926;-63
2022/02/27 04:09:31;;;;;;;;;;;;;;;4.23;75.12;101279.78;4957424;28;19981;-63
2022/02/27 04:12:15;;;;;;;;;;;;;;;4.21;76.01;101273.66;4957591;28;20041;-64
2022/02/27 04:14:59;;;;;;;;;;;;;;;4.22;75.51;101272.88;4956749;29;19941;-63
2022/02/27 04:17:43;;;;;;;;;;;;;;;4.23;75.14;101273.75;4957738;28;19925;-64
2022/02/27 04:20:27;;;;;;;;;;;;;;;4.22;75.24;101267.72;4956922;29;20016;-63
2022/02/27 04:23:11;;;;;;;;;;;;;;;4.22;75.38;101272.88;4957423;29;19977;-64
2022/02/27 04:25:55;;;;;;;;;;;;;;;4.20;75.77;101259.06;4956850;28;19926;-63
2022/02/27 04:28:39;;;;;;;;;;;;;;;4.20;75.34;101261.63;4957603;29;19925;-64
2022/02/27 04:31:25;;;;;;;;;;;;;;;4.20;75.12;101256.47;4957242;29;19945;-64
2022/02/27 04:34:09;;;;;;;;;;;;;;;4.19;75.42;101254.72;4969666;28;20008;-63
2022/02/27 04:36:56;;;;;;;;;;;;;;;4.18;75.69;101258.06;4957209;29;19925;-64
2022/02/27 04:39:41;;;;;;;;;;;;;;;4.16;75.14;101267.34;4956819;29;19974;-63
2022/02/27 04:42:25;;;;;;;;;;;;;;;4.13;75.62;101254.31;4956988;29;19991;-63
2022/02/27 04:45:09;;;;;;;;;;;;;;;4.12;75.60;101260.28;4956437;29;19970;-63
2022/02/27 04:47:53;;;;;;;;;;;;;;;4.10;75.38;101265.28;4956668;29;19969;-62
2022/02/27 04:50:36;;;;;;;;;;;;;;;4.11;75.01;101256.81;4957163;29;20008;-63
2022/02/27 04:53:21;;;;;;;;;;;;;;;4.13;75.15;101264.59;4956560;29;19925;-64
2022/02/27 04:56:05;;;;;;;;;;;;;;;4.13;76.08;101259.44;4956524;29;19925;-63
2022/02/27 04:58:49;;;;;;;;;;;;;;;4.13;75.09;101264.59;4956486;29;19945;-64
2022/02/27 05:01:33;;;;;;;;;;;;;;;4.15;75.21;101262.13;4956005;29;19925;-63
2022/02/27 05:04:16;;;;;;;;;;;;;;;4.13;75.53;101261.16;4956006;29;19929;-64
2022/02/27 05:07:01;;;;;;;;;;;;;;;4.11;75.22;101258.50;4956325;29;19942;-64
2022/02/27 05:09:45;;;;;;;;;;;;;;;4.11;75.04;101258.50;4956128;29;19973;-63
2022/02/27 05:12:29;;;;;;;;;;;;;;;4.11;75.20;101271.31;4956560;28;19925;-63
2022/02/27 05:15:12;;;;;;;;;;;;;;;4.10;75.36;101265.28;4956597;29;19926;-63
2022/02/27 05:17:57;;;;;;;;;;;;;;;4.11;75.39;101271.31;4956708;29;19929;-63
2022/02/27 05:20:41;;;;;;;;;;;;;;;4.13;75.17;101263.72;4955764;29;19925;-63
2022/02/27 05:23:25;;;;;;;;;;;;;;;4.10;75.38;101260.16;4956624;29;19965;-63
2022/02/27 05:26:09;;;;;;;;;;;;;;;4.10;75.84;101266.97;4956416;28;19925;-63
2022/02/27 05:28:53;;;;;;;;;;;;;;;4.09;75.81;101268.66;4956486;29;19941;-63
2022/02/27 05:31:41;;;;;;;;;;;;;;;4.09;75.15;101271.22;4956254;28;19929;-63
2022/02/27 05:34:25;;;;;;;;;;;;;;;4.11;75.20;101266.19;4955616;29;19925;-63
2022/02/27 05:37:09;;;;;;;;;;;;;;;4.11;75.33;101261.94;4955567;29;19965;-64
2022/02/27 05:39:53;;;;;;;;;;;;;;;4.14;75.12;101255.22;4955539;29;19969;-63
2022/02/27 05:42:37;;;;;;;;;;;;;;;4.14;75.28;101265.47;4955938;29;19944;-63
2022/02/27 05:45:20;;;;;;;;;;;;;;;4.14;75.88;101268.06;4955621;29;19969;-63
2022/02/27 05:48:05;;;;;;;;;;;;;;;4.13;75.24;101261.16;4956084;28;19988;-63
2022/02/27 05:50:51;;;;;;;;;;;;;;;4.12;75.22;101262.84;4955952;28;19925;-63
2022/02/27 05:53:35;;;;;;;;;;;;;;;4.12;75.36;101257.72;4956058;29;20302;-64
2022/02/27 05:56:19;;;;;;;;;;;;;;;4.10;75.77;101265.28;4956230;29;19925;-63
2022/02/27 05:59:06;;;;;;;;;;;;;;;4.10;75.44;101265.28;4955652;29;19926;-63
2022/02/27 06:01:52;;;;;;;;;;;;;;;4.08;75.21;101259.16;4955721;29;20401;-63
2022/02/27 06:04:37;;;;;;;;;;;;;;;4.08;76.05;101258.31;4954928;29;19933;-63
2022/02/27 06:07:23;;;;;;;;;;;;;;;4.07;75.19;101257.41;4955899;29;19970;-64
2022/02/27 06:10:07;;;;;;;;;;;;;;;4.08;75.16;101255.75;4955021;29;20362;-62
2022/02/27 06:12:51;;;;;;;;;;;;;;;4.07;75.70;101254.84;4955994;28;20325;-63
2022/02/27 06:15:35;;;;;;;;;;;;;;;4.09;75.29;101267.78;4955891;29;19925;-64
2022/02/27 06:18:19;;;;;;;;;;;;;;;4.07;75.71;101267.66;4954964;28;19925;-64
2022/02/27 06:21:04;;;;;;;;;;;;;;;4.07;75.18;101270.22;4955607;28;19926;-65
2022/02/27 06:23:51;;;;;;;;;;;;;;;4.07;75.90;101270.22;4968165;28;19942;-63
2022/02/27 06:26:35;;;;;;;;;;;;;;;4.07;75.04;101274.50;4955407;29;20436;-64
2022/02/27 06:29:19;;;;;;;;;;;;;;;4.06;75.16;101268.44;4955482;29;19925;-64
2022/02/27 06:32:03;;;;;;;;;;;;;;;4.05;75.44;101265.81;4955464;29;19924;-63
2022/02/27 06:34:50;;;;;;;;;;;;;;;4.04;75.45;101269.16;4955039;29;19925;-63
2022/02/27 06:37:36;;;;;;;;;;;;;;;4.04;75.90;101264.03;4955469;29;19924;-64
2022/02/27 06:40:24;;;;;;;;;;;;;;;4.03;75.27;101263.16;4967910;28;19941;-63
2022/02/27 06:43:08;;;;;;;;;;;;;;;4.03;75.10;101262.25;4954546;29;19973;-63
2022/02/27 06:45:51;;;;;;;;;;;;;;;4.04;75.36;101262.38;4955342;28;20067;-64
2022/02/27 06:48:38;;;;;;;;;;;;;;;4.03;75.87;101263.16;4955700;29;19973;-63
2022/02/27 06:51:22;;;;;;;;;;;;;;;4.05;75.90;101268.38;4958313;29;20017;-63
2022/02/27 06:54:06;;;;;;;;;;;;;;;4.03;75.12;101263.16;4959322;28;20021;-63
2022/02/27 06:56:50;;;;;;;;;;;;;;;4.04;75.17;101269.16;4958677;29;20429;-63
2022/02/27 06:59:34;;;;;;;;;;;;;;;4.04;75.31;101264.03;4959204;28;19973;-64
2022/02/27 07:02:18;;;;;;;;;;;;;;;4.02;75.19;101260.47;4958338;29;20498;-63
2022/02/27 07:05:02;;;;;;;;;;;;;;;4.03;75.46;101259.69;4958249;28;19945;-63
2022/02/27 07:07:46;;;;;;;;;;;;;;;4.02;75.43;101255.34;4958702;28;19929;-63
2022/02/27 07:10:30;;;;;;;;;;;;;;;4.02;75.64;101256.25;4958166;29;20293;-64
2022/02/27 07:13:17;;;;;;;;;;;;;;;3.99;75.75;101255.16;4958239;29;20394;-63
2022/02/27 07:16:03;;;;;;;;;;;;;;;3.99;75.51;101252.59;4958417;28;19965;-63
2022/02/27 07:18:48;;;;;;;;;;;;;;;3.98;75.55;101254.28;4970799;28;19925;-63
2022/02/27 07:21:32;;;;;;;;;;;;;;;3.97;74.93;101262.75;4958052;29;20404;-64
2022/02/27 07:24:16;;;;;;;;;;;;;;;3.95;75.32;101265.25;4958643;29;20126;-63
2022/02/27 07:27:00;;;;;;;;;;;;;;;3.95;75.25;101270.38;4971539;28;19941;-63
2022/02/27 07:29:45;;;;;;;;;;;;;;;3.95;75.67;101266.91;4970851;28;19925;-63
2022/02/27 07:32:29;;;;;;;;;;;;;;;3.92;75.55;101270.19;4958333;29;19949;-63
2022/02/27 07:35:13;;;;;;;;;;;;;;;3.91;75.06;101273.53;4957909;29;19972;-63
2022/02/27 07:37:58;;;;;;;;;;;;;;;3.91;75.59;101273.53;4958161;29;19928;-64
2022/02/27 07:40:42;;;;;;;;;;;;;;;3.91;75.45;101273.53;4958090;29;19925;-63
2022/02/27 07:43:28;;;;;;;;;;;;;;;3.91;75.04;101272.63;4957452;29;19934;-63
2022/02/27 07:46:12;;;;;;;;;;;;;;;3.90;75.02;101271.75;4956962;29;19925;-63
2022/02/27 07:48:56;;;;;;;;;;;;;;;3.89;75.77;101269.97;4958243;28;20125;-63
2022/02/27 07:51:41;;;;;;;;;;;;;;;3.91;75.15;101267.50;4958118;29;20389;-64
2022/02/27 07:54:24;;;;;;;;;;;;;;;3.89;75.29;101269.97;4958142;29;19925;-63
2022/02/27 07:57:08;;;;;;;;;;;;;;;3.89;75.35;101264.84;4970872;28;19971;-63
2022/02/27 07:59:52;;;;;;;;;;;;;;;3.88;75.36;101268.19;4957658;29;19973;-63
2022/02/27 08:02:36;;;;;;;;;;;;;;;3.88;75.14;101252.81;4956955;28;20365;-62
2022/02/27 08:05:20;;;;;;;;;;;;;;;3.87;75.19;101263.84;4957836;29;20333;-64
2022/02/27 08:08:04;;;;;;;;;;;;;;;3.87;75.07;101255.28;4957939;29;19989;-63
2022/02/27 08:10:48;;;;;;;;;;;;;;;3.87;75.16;101257.84;4957366;29;19925;-63
2022/02/27 08:13:32;;;;;;;;;;;;;;;3.86;75.10;101263.78;4957658;28;19925;-64
2022/02/27 08:16:16;;;;;;;;;;;;;;;3.83;75.83;101264.44;4957250;29;20397;-63
2022/02/27 08:19:03;;;;;;;;;;;;;;;3.83;75.85;101266.16;4957519;29;19961;-63
2022/02/27 08:21:47;;;;;;;;;;;;;;;3.83;75.14;101258.44;4969849;28;19928;-63
2022/02/27 08:24:31;;;;;;;;;;;;;;;3.83;75.51;101258.44;4957240;29;20014;-63
2022/02/27 08:27:17;;;;;;;;;;;;;;;3.83;75.59;101261.88;4956794;29;19973;-63
2022/02/27 08:30:01;;;;;;;;;;;;;;;3.85;75.31;101267.13;4957345;29;20048;-63
2022/02/27 08:32:50;;;;;;;;;;;;;;;3.86;75.26;101267.22;4956680;29;19957;-63
2022/02/27 08:35:34;;;;;;;;;;;;;;;3.85;75.64;101268.00;4957092;28;19925;-64
2022/02/27 08:38:20;;;;;;;;;;;;;;;3.86;75.27;101268.91;4956050;29;19925;-63
2022/02/27 08:41:04;;;;;;;;;;;;;;;3.86;75.34;101266.34;4956836;29;19924;-66
2022/02/27 08:43:48;;;;;;;;;;;;;;;3.87;75.66;101263.00;4956687;29;20013;-63
2022/02/27 08:46:32;;;;;;;;;;;;;;;3.89;74.82;101256.28;4957160;29;19925;-63
2022/02/27 08:49:16;;;;;;;;;;;;;;;3.90;75.30;101252.91;4956903;28;20293;-63
2022/02/27 08:52:01;;;;;;;;;;;;;;;3.93;74.93;101254.00;4957062;29;20010;-63
2022/02/27 08:54:46;;;;;;;;;;;;;;;3.97;74.92;101263.63;4956753;29;19926;-63
2022/02/27 08:57:30;;;;;;;;;;;;;;;4.00;75.63;101264.63;4955941;29;20325;-64
2022/02/27 09:00:15;;;;;;;;;;;;;;;4.01;74.86;101257.03;4956971;29;19953;-63
2022/02/27 09:02:59;;;;;;;;;;;;;;;4.04;75.20;101257.22;4956584;29;19977;-64
2022/02/27 09:05:45;;;;;;;;;;;;;;;4.07;74.90;101259.09;4969196;28;19941;-63
2022/02/27 09:08:29;;;;;;;;;;;;;;;4.09;75.36;101267.78;4969457;28;20318;-62
2022/02/27 09:11:13;;;;;;;;;;;;;;;4.12;75.03;101260.28;4956556;29;19926;-63
2022/02/27 09:13:57;;;;;;;;;;;;;;;4.14;75.07;101257.78;4956047;28;20545;-63
2022/02/27 09:16:41;;;;;;;;;;;;;;;4.15;75.09;101257.00;4956231;28;20405;-63
2022/02/27 09:19:27;;;;;;;;;;;;;;;4.18;74.81;101260.63;4956923;29;20413;-63
2022/02/27 09:22:11;;;;;;;;;;;;;;;4.20;74.75;101258.19;4955511;29;19926;-64
2022/02/27 09:24:55;;;;;;;;;;;;;;;4.21;74.81;101258.25;4955434;29;20013;-63
2022/02/27 09:27:39;;;;;;;;;;;;;;;4.23;74.59;101263.47;4955758;29;19940;-64
2022/02/27 09:30:23;;;;;;;;;;;;;;;4.26;74.50;101264.56;4956225;29;20013;-63
2022/02/27 09:33:09;;;;;;;;;;;;;;;4.28;74.42;101263.78;4956038;29;19928;-63
2022/02/27 09:35:53;;;;;;;;;;;;;;;4.30;74.47;101264.72;4955901;29;19925;-64
2022/02/27 09:38:38;;;;;;;;;;;;;;;4.29;74.54;101263.84;4956253;29;19925;-62
2022/02/27 09:41:22;;;;;;;;;;;;;;;4.31;74.48;101259.72;4955010;29;19966;-63
2022/02/27 09:44:08;;;;;;;;;;;;;;;4.34;74.42;101264.13;4955701;29;19933;-64
2022/02/27 09:46:52;;;;;;;;;;;;;;;4.35;74.34;101266.81;4955205;28;19925;-63
2022/02/27 09:49:38;;;;;;;;;;;;;;;4.37;74.82;101265.19;4968912;28;19969;-64
2022/02/27 09:52:23;;;;;;;;;;;;;;;4.39;74.45;101268.75;4955737;29;20076;-63
2022/02/27 09:55:08;;;;;;;;;;;;;;;4.41;74.61;101266.28;4956073;29;19929;-63
2022/02/27 09:57:52;;;;;;;;;;;;;;;4.42;74.25;101260.38;4955268;29;19926;-64
2022/02/27 10:00:36;;;;;;;;;;;;;;;4.42;74.23;101271.50;4956114;28;19966;-64
2022/02/27 10:03:25;;;;;;;;;;;;;;;4.44;74.81;101281.84;4955369;28;19925;-63
2022/02/27 10:06:13;;;;;;;;;;;;;;;4.45;74.17;101282.75;4954597;29;19925;-63
2022/02/27 10:08:57;;;;;;;;;;;;;;;4.46;75.14;101275.13;4968262;28;20452;-64
2022/02/27 10:11:41;;;;;;;;;;;;;;;4.46;74.10;101274.25;4955628;29;19973;-63
2022/02/27 10:14:26;;;;;;;;;;;;;;;4.48;74.73;101267.56;4955836;29;19925;-63
2022/02/27 10:17:10;;;;;;;;;;;;;;;4.51;74.83;101272.88;4955711;28;19924;-63
2022/02/27 10:19:53;;;;;;;;;;;;;;;4.52;74.81;101280.66;4955689;29;20385;-63
2022/02/27 10:22:48;;;;;;;;;;;;;;;4.53;74.82;101278.97;4955435;29;19973;-63
2022/02/27 10:25:32;;;;;;;;;;;;;;;4.55;74.42;101279.94;4956700;28;19925;-63
2022/02/27 10:28:19;;;;;;;;;;;;;;;4.54;74.27;101283.31;4959621;29;19973;-64
2022/02/27 10:31:09;;;;;;;;;;;;;;;4.56;74.91;101277.50;4958920;29;19933;-63
2022/02/27 10:34:17;;;;;;;;;;;;;;;4.57;74.00;101274.13;4959596;29;20381;-64
2022/02/27 10:37:08;;;;;;;;;;;;;;;4.59;74.58;101270.75;4958962;28;19925;-63
2022/02/27 10:39:52;;;;;;;;;;;;;;;4.59;74.19;101266.50;4972202;28;19924;-63
2022/02/27 10:42:36;;;;;;;;;;;;;;;4.60;74.14;101273.41;4959015;29;19976;-63
2022/02/27 10:45:22;;;;;;;;;;;;;;;4.61;74.55;101269.16;4959104;28;19925;-63
2022/02/27 10:48:14;;;;;;;;;;;;;;;4.63;74.13;101265.00;4958940;28;20016;-63
2022/02/27 10:51:05;;;;;;;;;;;;;;;4.64;74.32;101267.69;4958544;29;19941;-63
2022/02/27 10:53:55;;;;;;;;;;;;;;;4.65;74.50;101266.88;4957952;29;19941;-63
2022/02/27 10:56:42;;;;;;;;;;;;;;;4.66;74.65;101265.19;4957904;29;19925;-63
2022/02/27 10:59:26;;;;;;;;;;;;;;;4.66;74.48;101265.19;4957913;29;19927;-64
2022/02/27 11:02:10;;;;;;;;;;;;;;;4.66;74.45;101263.53;4958570;28;19926;-63
2022/02/27 11:04:54;;;;;;;;;;;;;;;4.67;74.80;101259.25;4958492;29;20297;-63
2022/02/27 11:07:44;;;;;;;;;;;;;;;4.67;74.52;101256.69;4971215;28;19926;-64
2022/02/27 11:10:29;;;;;;;;;;;;;;;4.68;73.80;101254.19;4957925;29;19973;-63
2022/02/27 11:13:13;;;;;;;;;;;;;;;4.68;74.60;101253.31;4958526;29;20335;-63
2022/02/27 11:15:57;;;;;;;;;;;;;;;4.68;74.69;101251.63;4958876;29;20397;-63
2022/02/27 11:18:42;;;;;;;;;;;;;;;4.69;74.26;101248.25;4958542;29;19940;-64
2022/02/27 11:21:26;;;;;;;;;;;;;;;4.70;74.24;101244.03;4958026;29;20345;-64
2022/02/27 11:24:10;;;;;;;;;;;;;;;4.70;74.31;101246.59;4958421;29;19925;-63
2022/02/27 11:26:54;;;;;;;;;;;;;;;4.71;73.93;101245.81;4971197;28;19924;-64
2022/02/27 11:29:37;;;;;;;;;;;;;;;4.71;73.92;101245.81;4958312;29;19924;-63
2022/02/27 11:32:24;;;;;;;;;;;;;;;4.72;73.83;101251.03;4957948;29;20030;-64
2022/02/27 11:35:10;;;;;;;;;;;;;;;4.71;74.26;101249.25;4957760;28;19925;-63
2022/02/27 11:37:54;;;;;;;;;;;;;;;4.73;74.20;101242.53;4957432;29;20014;-64
2022/02/27 11:40:39;;;;;;;;;;;;;;;4.75;74.17;101242.59;4970808;28;19965;-63
2022/02/27 11:43:43;;;;;;;;;;;;;;;4.75;74.13;101234.91;4957959;28;19929;-63
2022/02/27 11:46:30;;;;;;;;;;;;;;;4.75;74.25;101228.88;4956969;29;19929;-64
2022/02/27 11:49:25;;;;;;;;;;;;;;;4.75;74.24;101234.03;4958047;29;20397;-64
2022/02/27 11:52:09;;;;;;;;;;;;;;;4.74;74.17;101230.59;4957165;29;19925;-64
2022/02/27 11:54:54;;;;;;;;;;;;;;;4.75;74.59;101228.88;4957557;29;19960;-64
2022/02/27 11:57:43;;;;;;;;;;;;;;;4.76;73.73;101230.66;4957918;29;20289;-63
2022/02/27 12:00:37;;;;;;;;;;;;;;;4.76;73.80;101223.81;4956718;28;20017;-64
2022/02/27 12:03:30;;;;;;;;;;;;;;;4.75;74.19;101211.78;4956785;29;19925;-64
2022/02/27 12:06:14;;;;;;;;;;;;;;;4.77;74.05;101223.03;4957337;29;19925;-63
2022/02/27 12:08:58;;;;;;;;;;;;;;;4.78;73.69;101217.09;4957522;29;19973;-64
2022/02/27 12:11:48;;;;;;;;;;;;;;;4.77;73.79;101215.31;4957677;28;20437;-64
2022/02/27 12:14:32;;;;;;;;;;;;;;;4.78;73.87;101211.97;4957888;29;20333;-64
2022/02/27 12:17:45;;;;;;;;;;;;;;;4.80;73.98;101201.81;4956998;29;19966;-65
2022/02/27 12:20:45;;;;;;;;;;;;;;;4.80;73.98;101205.25;4955511;28;20406;-64
2022/02/27 12:23:33;;;;;;;;;;;;;;;4.79;73.96;101195.75;4970022;28;19941;-64
2022/02/27 12:26:42;;;;;;;;;;;;;;;4.81;73.26;101191.59;4969975;28;20317;-63
2022/02/27 12:29:31;;;;;;;;;;;;;;;4.81;74.00;101185.59;4969679;28;19969;-63
2022/02/27 12:32:20;;;;;;;;;;;;;;;4.80;74.41;101189.81;4957190;29;20372;-64
2022/02/27 12:35:04;;;;;;;;;;;;;;;4.80;73.91;101184.69;4956569;28;19965;-64
2022/02/27 12:37:48;;;;;;;;;;;;;;;4.80;74.10;101189.81;4957258;28;19972;-64
2022/02/27 12:40:35;;;;;;;;;;;;;;;4.80;73.71;101188.97;4957216;28;19965;-64
2022/02/27 12:43:19;;;;;;;;;;;;;;;4.81;74.08;101195.88;4969950;28;19941;-63
2022/02/27 12:46:03;;;;;;;;;;;;;;;4.81;74.14;101194.16;4956434;29;19926;-64
2022/02/27 12:51:50;;;;;;;;;;;;;;;4.83;73.23;101192.56;4957182;29;19925;-64
2022/02/27 12:54:35;;;;;;;;;;;;;;;4.84;74.25;101188.31;4956437;29;19934;-64
2022/02/27 12:57:19;;;;;;;;;;;;;;;4.84;74.07;101188.31;4956797;28;20049;-63
2022/02/27 13:00:03;;;;;;;;;;;;;;;4.83;73.38;101182.31;4956615;29;19965;-64
2022/02/27 13:02:48;;;;;;;;;;;;;;;4.84;73.80;101184.06;4956569;29;19929;-64
2022/02/27 13:05:34;;;;;;;;;;;;;;;4.84;73.70;101184.06;4956333;29;19924;-64
2022/02/27 13:08:18;;;;;;;;;;;;;;;4.85;73.26;101179.81;4955352;29;19969;-64
2022/02/27 13:11:02;;;;;;;;;;;;;;;4.85;73.86;101179.81;4956288;29;20449;-64
2022/02/27 13:13:47;;;;;;;;;;;;;;;4.85;73.73;101169.53;4956834;29;20413;-63
2022/02/27 13:16:32;;;;;;;;;;;;;;;4.85;73.72;101161.81;4956435;29;19925;-64
2022/02/27 13:19:27;;;;;;;;;;;;;;;4.85;74.04;101160.16;4955407;28;19925;-63
2022/02/27 13:22:12;;;;;;;;;;;;;;;4.87;73.62;101160.22;4955250;28;19926;-63
2022/02/27 13:24:59;;;;;;;;;;;;;;;4.88;73.56;101162.91;4955068;29;20409;-63
2022/02/27 13:27:48;;;;;;;;;;;;;;;4.88;73.72;101152.63;4969245;28;20333;-64
2022/02/27 13:30:33;;;;;;;;;;;;;;;4.90;72.95;101152.72;4955380;28;19923;-64
2022/02/27 13:33:22;;;;;;;;;;;;;;;4.91;73.48;101151.00;4955998;29;19929;-64
2022/02/27 13:36:10;;;;;;;;;;;;;;;4.90;73.30;101150.13;4955605;29;19926;-64
2022/02/27 13:38:55;;;;;;;;;;;;;;;4.92;73.62;101145.97;4956700;29;19972;-64
2022/02/27 13:41:39;;;;;;;;;;;;;;;4.92;73.60;101143.41;4955687;29;19985;-64
2022/02/27 13:44:27;;;;;;;;;;;;;;;4.91;72.97;101136.50;4955254;28;19977;-64
2022/02/27 13:47:11;;;;;;;;;;;;;;;4.90;73.57;101134.72;4955224;29;19926;-64
2022/02/27 13:49:55;;;;;;;;;;;;;;;4.90;73.55;101136.44;4955950;29;20429;-64
2022/02/27 13:52:39;;;;;;;;;;;;;;;4.91;73.30;101131.34;4955718;29;19969;-64
2022/02/27 13:55:24;;;;;;;;;;;;;;;4.89;73.56;101130.38;4955738;29;19930;-64
2022/02/27 13:58:10;;;;;;;;;;;;;;;4.90;73.21;101123.59;4955807;28;20278;-64
2022/02/27 14:00:55;;;;;;;;;;;;;;;4.90;73.57;101119.31;4967947;28;19925;-63
2022/02/27 14:03:41;;;;;;;;;;;;;;;4.89;73.68;101122.69;4955641;29;19973;-64
2022/02/27 14:06:31;;;;;;;;;;;;;;;4.90;73.85;101129.59;4955520;29;19925;-63
2022/02/27 14:09:15;;;;;;;;;;;;;;;4.89;73.24;101117.53;4955648;29;19925;-64
2022/02/27 14:12:03;;;;;;;;;;;;;;;4.88;73.73;101120.91;4954898;29;19925;-63
2022/02/27 14:14:50;;;;;;;;;;;;;;;4.89;73.76;101127.81;4954654;29;20405;-64
2022/02/27 14:17:42;;;;;;;;;;;;;;;4.91;73.48;101122.75;4968196;28;19933;-64
2022/02/27 14:20:30;;;;;;;;;;;;;;;4.89;73.95;101127.81;4954931;29;20350;-63
2022/02/27 14:23:14;;;;;;;;;;;;;;;4.88;73.72;101113.19;4955454;29;19961;-64